createdAt,value
2023-05-06T00:02:08.557Z,11.30
2023-05-06T00:05:37.078Z,13.60
2023-05-06T00:09:04.717Z,10.70
2023-05-06T00:12:32.147Z,13.50
2023-05-06T00:15:59.427Z,9.90
2023-05-06T00:19:27.640Z,8.30
2023-05-06T00:22:55.035Z,7.90
2023-05-06T00:26:22.391Z,8.10
2023-05-06T00:29:49.295Z,13.20
2023-05-06T00:33:16.592Z,8.70
2023-05-06T00:36:44.161Z,8.70
2023-05-06T00:40:14.271Z,9.90
2023-05-06T00:43:42.164Z,9.40
2023-05-06T00:47:09.786Z,8.90
2023-05-06T00:50:38.126Z,8.90
2023-05-06T00:54:05.769Z,8.20
2023-05-06T00:57:32.754Z,6.60
2023-05-06T01:01:02.008Z,13.00
2023-05-06T01:04:30.041Z,9.20
2023-05-06T01:08:08.043Z,9.30
2023-05-06T01:11:42.699Z,8.20
2023-05-06T01:15:16.811Z,10.20
2023-05-06T01:18:46.862Z,7.40
2023-05-06T01:22:15.583Z,12.20
2023-05-06T01:25:43.045Z,11.80
2023-05-06T01:29:09.934Z,9.40
2023-05-06T01:32:49.298Z,7.80
2023-05-06T01:36:24.985Z,13.20
2023-05-06T01:39:56.396Z,8.20
2023-05-06T01:43:26.455Z,8.60
2023-05-06T01:46:55.560Z,10.40
2023-05-06T01:50:22.591Z,11.80
2023-05-06T01:53:49.311Z,6.00
2023-05-06T01:57:16.665Z,7.60
2023-05-06T02:00:44.481Z,8.10
2023-05-06T02:04:12.203Z,10.20
2023-05-06T02:07:39.648Z,6.60
2023-05-06T02:11:07.168Z,8.00
2023-05-06T02:14:34.834Z,6.90
2023-05-06T02:18:02.885Z,11.10
2023-05-06T02:21:29.508Z,7.80
2023-05-06T02:24:56.551Z,8.70
2023-05-06T02:28:23.824Z,10.40
2023-05-06T02:31:51.335Z,6.70
2023-05-06T02:35:18.258Z,9.60
2023-05-06T02:38:46.055Z,10.70
2023-05-06T02:42:14.604Z,7.20
2023-05-06T02:45:41.593Z,8.00
2023-05-06T02:49:08.982Z,8.10
2023-05-06T02:52:35.729Z,8.30
2023-05-06T02:56:02.848Z,11.20
2023-05-06T02:59:29.863Z,9.80
2023-05-06T03:02:56.852Z,7.60
2023-05-06T03:06:23.591Z,7.50
2023-05-06T03:09:50.353Z,6.20
2023-05-06T03:13:17.652Z,9.00
2023-05-06T03:16:44.705Z,6.00
2023-05-06T03:20:13.812Z,7.70
2023-05-06T03:23:44.465Z,9.60
2023-05-06T03:27:11.648Z,7.40
2023-05-06T03:30:39.351Z,7.50
2023-05-06T03:34:06.631Z,8.00
2023-05-06T03:37:34.460Z,8.10
2023-05-06T03:41:01.967Z,5.20
2023-05-06T03:44:30.001Z,6.60
2023-05-06T03:47:58.684Z,8.70
2023-05-06T03:51:26.723Z,5.60
2023-05-06T03:54:55.952Z,5.10
2023-05-06T03:58:23.500Z,8.20
2023-05-06T04:01:51.717Z,7.60
2023-05-06T04:05:19.208Z,6.80
2023-05-06T04:08:46.099Z,9.70
2023-05-06T04:12:14.738Z,7.20
2023-05-06T04:15:41.744Z,6.80
2023-05-06T04:19:10.993Z,7.50
2023-05-06T04:22:38.743Z,8.00
2023-05-06T04:26:06.501Z,7.00
2023-05-06T04:29:34.975Z,9.30
2023-05-06T04:33:04.266Z,7.40
2023-05-06T04:36:32.433Z,4.40
2023-05-06T04:40:27.863Z,9.20
2023-05-06T04:43:54.738Z,7.40
2023-05-06T04:47:22.906Z,8.90
2023-05-06T04:50:51.474Z,5.10
2023-05-06T04:54:18.575Z,7.00
2023-05-06T04:57:46.190Z,6.40
2023-05-06T05:01:13.652Z,6.50
2023-05-06T05:04:41.208Z,7.70
2023-05-06T05:08:08.780Z,7.50
2023-05-06T05:11:38.303Z,12.30
2023-05-06T05:15:06.158Z,8.80
2023-05-06T05:18:34.165Z,5.80
2023-05-06T05:22:06.291Z,7.30
2023-05-06T05:25:33.995Z,5.90
2023-05-06T05:29:01.573Z,6.70
2023-05-06T05:32:29.231Z,7.10
2023-05-06T05:35:56.078Z,6.80
2023-05-06T05:39:23.797Z,4.50
2023-05-06T05:42:52.799Z,5.20
2023-05-06T05:46:25.832Z,6.70
2023-05-06T05:49:55.049Z,5.70
2023-05-06T05:53:24.399Z,6.10
2023-05-06T05:56:52.110Z,5.50
2023-05-06T06:00:21.298Z,9.70
2023-05-06T06:03:56.958Z,6.80
2023-05-06T06:07:24.779Z,6.10
2023-05-06T06:10:52.072Z,6.80
2023-05-06T06:14:21.783Z,7.50
2023-05-06T06:17:49.842Z,6.60
2023-05-06T06:21:17.033Z,5.00
2023-05-06T06:24:43.988Z,8.10
2023-05-06T06:28:11.922Z,6.30
2023-05-06T06:31:41.050Z,6.30
2023-05-06T06:35:09.815Z,4.00
2023-05-06T06:38:38.708Z,7.30
2023-05-06T06:42:07.251Z,5.60
2023-05-06T06:45:39.194Z,4.60
2023-05-06T06:49:08.256Z,5.10
2023-05-06T06:52:35.646Z,6.50
2023-05-06T06:56:04.861Z,6.80
2023-05-06T06:59:31.614Z,7.90
2023-05-06T07:02:59.078Z,9.50
2023-05-06T07:06:26.272Z,4.70
2023-05-06T07:09:53.836Z,9.70
2023-05-06T07:13:23.622Z,4.50
2023-05-06T07:16:51.668Z,9.50
2023-05-06T07:20:19.096Z,6.80
2023-05-06T07:23:46.176Z,9.90
2023-05-06T07:27:14.350Z,6.70
2023-05-06T07:30:42.610Z,8.60
2023-05-06T07:34:11.599Z,11.50
2023-05-06T07:37:38.937Z,7.50
2023-05-06T07:41:06.496Z,9.90
2023-05-06T07:44:33.178Z,8.20
2023-05-06T07:48:00.416Z,7.10
2023-05-06T07:51:28.413Z,5.90
2023-05-06T07:54:57.323Z,7.90
2023-05-06T07:58:25.333Z,7.60
2023-05-06T08:01:52.455Z,8.40
2023-05-06T08:05:19.456Z,11.20
2023-05-06T08:08:46.982Z,7.70
2023-05-06T08:12:13.953Z,8.30
2023-05-06T08:15:40.935Z,7.50
2023-05-06T08:19:08.070Z,8.70
2023-05-06T08:22:34.753Z,8.20
2023-05-06T08:26:02.200Z,8.10
2023-05-06T08:29:29.193Z,9.80
2023-05-06T08:32:56.477Z,12.20
2023-05-06T08:36:23.590Z,11.00
2023-05-06T08:39:50.496Z,9.80
2023-05-06T08:43:22.293Z,9.20
2023-05-06T08:46:49.843Z,9.50
2023-05-06T08:50:19.578Z,6.50
2023-05-06T08:53:51.855Z,8.10
2023-05-06T08:57:20.444Z,7.50
2023-05-06T09:00:48.767Z,8.10
2023-05-06T09:04:17.751Z,8.30
2023-05-06T09:07:44.722Z,7.70
2023-05-06T09:11:25.411Z,8.50
2023-05-06T09:14:52.958Z,8.70
2023-05-06T09:18:20.068Z,12.40
2023-05-06T09:21:51.233Z,10.80
2023-05-06T09:25:21.035Z,14.00
2023-05-06T09:28:54.071Z,11.80
2023-05-06T09:32:21.269Z,7.70
2023-05-06T09:35:50.412Z,9.00
2023-05-06T09:39:18.693Z,9.10
2023-05-06T09:42:46.959Z,9.00
2023-05-06T09:46:14.614Z,11.70
2023-05-06T09:49:42.523Z,8.40
2023-05-06T09:53:10.284Z,6.40
2023-05-06T09:56:37.701Z,8.20
2023-05-06T10:00:07.353Z,11.60
2023-05-06T10:03:42.373Z,11.30
2023-05-06T10:07:10.519Z,9.60
2023-05-06T10:10:39.089Z,10.90
2023-05-06T10:14:10.489Z,10.60
2023-05-06T10:17:41.356Z,9.00
2023-05-06T10:21:16.281Z,8.20
2023-05-06T10:24:57.856Z,10.40
2023-05-06T10:28:31.538Z,11.30
2023-05-06T10:32:01.257Z,10.00
2023-05-06T10:35:38.369Z,7.80
2023-05-06T10:39:07.779Z,8.60
2023-05-06T10:42:38.686Z,11.60
2023-05-06T10:46:12.279Z,10.60
2023-05-06T10:49:39.958Z,9.40
2023-05-06T10:53:08.326Z,12.90
2023-05-06T10:56:37.465Z,10.40
2023-05-06T11:00:12.402Z,14.80
2023-05-06T11:03:46.013Z,16.90
2023-05-06T11:07:22.740Z,15.00
2023-05-06T11:10:49.870Z,12.10
2023-05-06T11:14:26.026Z,16.60
2023-05-06T11:17:54.982Z,9.60
2023-05-06T11:21:46.568Z,8.40
2023-05-06T11:25:22.628Z,12.40
2023-05-06T11:28:51.736Z,12.80
2023-05-06T11:32:26.667Z,11.30
2023-05-06T11:35:54.505Z,11.60
2023-05-06T11:39:21.779Z,11.80
2023-05-06T11:42:48.990Z,13.80
2023-05-06T11:46:16.402Z,8.40
2023-05-06T11:49:44.338Z,9.70
2023-05-06T11:53:12.018Z,10.40
2023-05-06T11:56:50.270Z,11.10
2023-05-06T12:00:19.199Z,12.30
2023-05-06T12:03:46.490Z,10.70
2023-05-06T12:07:14.984Z,9.00
2023-05-06T12:10:42.593Z,12.60
2023-05-06T12:14:11.548Z,9.50
2023-05-06T12:17:38.976Z,7.40
2023-05-06T12:21:07.551Z,7.00
2023-05-06T12:24:34.730Z,11.80
2023-05-06T12:28:01.947Z,9.40
2023-05-06T12:31:28.949Z,7.40
2023-05-06T12:34:58.728Z,9.40
2023-05-06T12:38:25.779Z,11.60
2023-05-06T12:41:54.335Z,10.70
2023-05-06T12:45:25.282Z,10.70
2023-05-06T12:49:05.253Z,11.50
2023-05-06T12:52:32.010Z,9.30
2023-05-06T12:55:58.951Z,9.80
2023-05-06T12:59:27.920Z,11.50
2023-05-06T13:02:54.630Z,9.40
2023-05-06T13:06:21.346Z,11.70
2023-05-06T13:09:49.106Z,10.30
2023-05-06T13:13:17.047Z,15.00
2023-05-06T13:16:44.820Z,9.90
2023-05-06T13:20:14.336Z,11.80
2023-05-06T13:23:47.095Z,8.40
2023-05-06T13:27:14.884Z,9.90
2023-05-06T13:30:42.058Z,10.80
2023-05-06T13:34:09.049Z,10.30
2023-05-06T13:37:36.093Z,14.80
2023-05-06T13:41:03.214Z,10.80
2023-05-06T13:44:30.783Z,11.40
2023-05-06T13:47:58.225Z,11.20
2023-05-06T13:51:27.753Z,9.40
2023-05-06T13:54:55.015Z,10.40
2023-05-06T13:58:21.881Z,9.80
2023-05-06T14:01:50.296Z,8.90
2023-05-06T14:05:22.819Z,13.60
2023-05-06T14:08:50.316Z,15.90
2023-05-06T14:12:18.417Z,16.50
2023-05-06T14:15:45.822Z,15.60
2023-05-06T14:19:12.769Z,13.60
2023-05-06T14:22:41.730Z,14.60
2023-05-06T14:26:09.402Z,13.00
2023-05-06T14:29:36.518Z,14.60
2023-05-06T14:33:04.089Z,10.80
2023-05-06T14:36:31.566Z,10.20
2023-05-06T14:40:00.642Z,12.60
2023-05-06T14:43:28.129Z,11.70
2023-05-06T14:46:58.202Z,17.20
2023-05-06T14:50:30.268Z,13.70
2023-05-06T14:53:57.479Z,16.60
2023-05-06T14:57:24.568Z,12.10
2023-05-06T15:00:52.820Z,14.20
2023-05-06T15:04:20.700Z,11.40
2023-05-06T15:08:03.873Z,12.10
2023-05-06T15:11:30.636Z,14.40
2023-05-06T15:14:57.873Z,24.40
2023-05-06T15:18:24.989Z,19.10
2023-05-06T15:21:52.063Z,12.70
2023-05-06T15:25:33.348Z,14.60
2023-05-06T15:29:02.369Z,13.90
2023-05-06T15:32:30.704Z,14.90
2023-05-06T15:35:58.007Z,14.50
2023-05-06T15:39:26.293Z,15.90
2023-05-06T15:42:52.929Z,13.80
2023-05-06T15:46:19.937Z,13.60
2023-05-06T15:49:52.748Z,11.10
2023-05-06T15:53:22.081Z,11.20
2023-05-06T15:56:49.633Z,10.40
2023-05-06T16:00:18.542Z,11.70
2023-05-06T16:03:46.737Z,11.00
2023-05-06T16:07:24.692Z,10.20
2023-05-06T16:10:52.630Z,13.60
2023-05-06T16:14:19.830Z,11.80
2023-05-06T16:17:49.740Z,15.90
2023-05-06T16:21:16.816Z,12.60
2023-05-06T16:24:50.295Z,10.90
2023-05-06T16:28:17.366Z,11.00
2023-05-06T16:31:44.835Z,10.40
2023-05-06T16:35:13.280Z,12.20
2023-05-06T16:38:42.380Z,13.70
2023-05-06T16:42:09.704Z,13.00
2023-05-06T16:45:38.551Z,8.90
2023-05-06T16:49:05.926Z,11.20
2023-05-06T16:52:33.140Z,13.70
2023-05-06T16:56:03.390Z,11.90
2023-05-06T16:59:33.195Z,12.50
2023-05-06T17:03:01.419Z,14.20
2023-05-06T17:06:31.735Z,12.30
2023-05-06T17:10:01.313Z,11.40
2023-05-06T17:13:29.041Z,13.90
2023-05-06T17:16:56.676Z,11.20
2023-05-06T17:20:25.535Z,15.90
2023-05-06T17:24:01.697Z,14.70
2023-05-06T17:27:31.988Z,16.00
2023-05-06T17:31:04.458Z,12.80
2023-05-06T17:34:37.023Z,11.40
2023-05-06T17:38:09.137Z,12.00
2023-05-06T17:41:39.067Z,9.90
2023-05-06T17:45:13.946Z,9.00
2023-05-06T17:48:41.530Z,10.20
2023-05-06T17:52:08.820Z,14.00
2023-05-06T17:55:36.155Z,13.50
2023-05-06T17:59:14.663Z,12.10
2023-05-06T18:02:42.923Z,12.80
2023-05-06T18:06:10.676Z,14.70
2023-05-06T18:09:39.378Z,12.00
2023-05-06T18:13:07.072Z,12.70
2023-05-06T18:16:35.661Z,9.20
2023-05-06T18:20:04.091Z,9.50
2023-05-06T18:23:31.399Z,14.30
2023-05-06T18:27:02.095Z,13.40
2023-05-06T18:30:31.354Z,12.50
2023-05-06T18:33:58.685Z,15.10
2023-05-06T18:37:27.453Z,14.10
2023-05-06T18:40:55.363Z,11.10
2023-05-06T18:44:23.147Z,11.90
2023-05-06T18:47:50.881Z,12.90
2023-05-06T18:51:21.909Z,14.80
2023-05-06T18:54:51.880Z,14.50
2023-05-06T18:58:21.416Z,14.00
2023-05-06T19:01:51.144Z,13.40
2023-05-06T19:05:19.910Z,16.50
2023-05-06T19:08:47.677Z,18.40
2023-05-06T19:12:20.979Z,21.70
2023-05-06T19:15:49.949Z,15.00
2023-05-06T19:19:19.942Z,18.90
2023-05-06T19:22:52.880Z,17.50
2023-05-06T19:26:29.605Z,18.40
2023-05-06T19:30:01.717Z,18.10
2023-05-06T19:33:29.428Z,30.90
2023-05-06T19:36:57.962Z,26.90
2023-05-06T19:40:26.377Z,24.60
2023-05-06T19:43:54.689Z,30.50
2023-05-06T19:47:22.392Z,34.20
2023-05-06T19:50:51.047Z,40.00
2023-05-06T19:54:22.759Z,51.60
2023-05-06T19:57:53.662Z,58.40
2023-05-06T20:01:24.265Z,69.60
2023-05-06T20:04:53.867Z,64.40
2023-05-06T20:08:21.318Z,30.10
2023-05-06T20:11:51.642Z,24.10
2023-05-06T20:15:19.639Z,22.70
2023-05-06T20:18:52.484Z,26.50
2023-05-06T20:25:50.008Z,24.40
2023-05-06T20:29:20.355Z,22.30
2023-05-06T20:32:53.620Z,26.20
2023-05-06T20:36:24.492Z,24.20
2023-05-06T20:39:53.850Z,22.90
2023-05-06T20:43:21.752Z,22.70
2023-05-06T20:46:52.832Z,33.40
2023-05-06T20:50:25.380Z,25.50
2023-05-06T20:53:52.447Z,24.50
2023-05-06T20:57:20.734Z,20.40
2023-05-06T21:00:49.250Z,21.40
2023-05-06T21:04:19.162Z,25.10
2023-05-06T21:07:49.564Z,22.80
2023-05-06T21:11:20.211Z,22.60
2023-05-06T21:14:50.587Z,29.40
2023-05-06T21:18:33.154Z,45.70
2023-05-06T21:25:36.324Z,26.80
2023-05-06T21:29:08.678Z,31.40
2023-05-06T21:32:36.270Z,30.80
2023-05-06T21:36:04.291Z,26.30
2023-05-06T21:39:31.811Z,30.50
2023-05-06T21:43:00.689Z,24.40
2023-05-06T21:46:29.443Z,26.70
2023-05-06T21:50:00.815Z,25.10
2023-05-06T21:53:29.051Z,20.50
2023-05-06T21:57:10.639Z,21.20
2023-05-06T22:00:37.975Z,19.20
2023-05-06T22:04:11.580Z,22.90
2023-05-06T22:07:39.251Z,19.00
2023-05-06T22:11:06.201Z,18.00
2023-05-06T22:14:40.523Z,19.70
2023-05-06T22:18:09.475Z,23.90
2023-05-06T22:21:37.199Z,24.40
2023-05-06T22:25:05.304Z,23.60
2023-05-06T22:28:35.384Z,23.80
2023-05-06T22:32:02.668Z,20.10
2023-05-06T22:35:29.742Z,19.50
2023-05-06T22:38:56.428Z,23.00
2023-05-06T22:42:23.430Z,19.00
2023-05-06T22:45:50.610Z,20.20
2023-05-06T22:49:19.816Z,27.30
2023-05-06T22:52:47.442Z,22.40
2023-05-06T22:56:14.639Z,22.90
2023-05-06T22:59:41.140Z,22.40
2023-05-06T23:03:08.689Z,20.00
2023-05-06T23:06:35.674Z,22.60
2023-05-06T23:10:02.632Z,23.60
2023-05-06T23:13:31.688Z,21.30
2023-05-06T23:17:01.665Z,19.40
2023-05-06T23:20:28.514Z,22.40
2023-05-06T23:23:55.176Z,23.80
2023-05-06T23:27:21.618Z,27.60
2023-05-06T23:30:50.372Z,22.50
2023-05-06T23:34:17.793Z,17.50
2023-05-06T23:37:46.164Z,22.90
2023-05-06T23:41:13.895Z,19.60
2023-05-06T23:44:41.331Z,18.60
2023-05-06T23:48:09.211Z,20.50
2023-05-06T23:51:36.616Z,22.60
2023-05-06T23:55:03.260Z,19.30
2023-05-06T23:58:31.116Z,17.60
